logo
App data

Delta Force: Task Force Dagger

As the US army's elite special operations soldiers you are the most potent 'smart weapon' known to man. You are the 'tip of the spear' for covert operations around the world — you are the first line of attack. Nothing stands in your way.
Store | Hub | SteamDB | Site
Developer: NovaLogic Publisher: NovaLogic, THQ Nordic
Genre: Action
Languages: English
Tags: Action (27), FPS (5)
Category: Single-player, Multi-player
Release date: Jun 18, 2009
Price: $9.99
Old userscore: 80% Metascore: 51%
Owners: 20,000 .. 50,000
Followers: 322
Peak concurrent players yesterday: 4
Playtime total: 02:11 (average) 03:14 (median)

Steam Spy is still in beta, so expect major bugs.

Owners data:

Access restricted.

This feature is only available to users with special access rights. Sorry.

If you want to proceed, you need to register or log in first and then back Steam Spy on Patreon. Look for Indie or Pro pledge.

Don't forget to use the same email as on Steam Spy!

Audience in 2 weeks:

Access restricted.

This feature is only available to users with special access rights. Sorry.

If you want to proceed, you need to register or log in first and then back Steam Spy on Patreon. Look for Indie or Pro pledge.

Don't forget to use the same email as on Steam Spy!

Peak daily concurrent players:

CCU data courtesy of SteamDB. Used with permission.

Hourly concurrent players:

Daily Twitch stats:

Hourly Twitch stats:

YouTube:

The views data is based on top 50 videos uploaded last week. Actual number of views might be more than the number shown.

The displayed number of videos uploaded yesterday is limited to 50, so if there were more videos uploaded, the number will still show 50.

If the game has commonly used word as its name (like "FEAR" or "Volume") its number of Youtube views might be wrong.

Games similar to this one:

# Game Release date
Price
Score rank
(Userscore / Metascore)
Owners
Players
Playtime (Median)
1 The Ship: Single Player Nov 20, 2006 N/AN/A (N/A)200,000 .. 500,0000.05%00:12 (00:04)
2 Shadow Ops: Red Mercury Sep 17, 2004 $6.99N/A (N/A/61%)50,000 .. 100,0001.72%00:08 (00:02)
3 Cold War Sep 27, 2005 $4.99N/A (N/A/64%)20,000 .. 50,0000%00:00 (00:00)
4 LocoCycle Feb 14, 2014 $9.99N/A (N/A)20,000 .. 50,0000%00:00 (00:00)
5 Sonic the Hedgehog 4 - Episode II May 15, 2012 $9.99N/A (N/A/54%)200,000 .. 500,0000.25%00:36 (00:12)
6 Inbound Jul 5, 2016 $2.99N/A (N/A)0 .. 20,0000%00:00 (00:00)
7 Plain Sight Apr 5, 2010 $4.99N/A (N/A/76%)100,000 .. 200,0000%00:00 (00:00)
8 Mytheon Jul 13, 2010 $5.39N/A (N/A)0 .. 20,0000%00:00 (00:00)
9 Alien Shooter: Revisited May 27, 2009 $4.99N/A (N/A)200,000 .. 500,0002.33%01:24 (01:19)
10 Super Mutant Alien Assault Jul 11, 2016 $2.49N/A (N/A)0 .. 20,0000%00:00 (00:00)
11 Watchmen: The End is Nigh Part 2 Jul 29, 2009 $4.99N/A (N/A/44%)20,000 .. 50,0000%00:00 (00:00)
12 ManaCollect Apr 17, 2015 $6.99N/A (N/A)0 .. 20,0000%00:00 (00:00)
13 Aces of the Galaxy Jul 23, 2009 $9.99N/A (N/A)0 .. 20,0000%00:00 (00:00)
14 Chernobyl Commando Mar 8, 2013 $0.99N/A (N/A)50,000 .. 100,0000%00:00 (00:00)
15 Eterium Apr 15, 2014 $4.99N/A (N/A)100,000 .. 200,0000%00:00 (00:00)
16 Blood Omen 2: Legacy of Kain Sep 24, 2013 $0.97N/A (N/A)200,000 .. 500,0000%00:00 (00:00)
17 Kung Fu Strike - The Warrior's Rise Jul 24, 2012 $9.99N/A (N/A)100,000 .. 200,0000%00:00 (00:00)
18 Crewsaders Nov 17, 2016 $2.99N/A (N/A)0 .. 20,0000%00:00 (00:00)
19 Garshasp: Temple of the Dragon Sep 24, 2012 $4.99N/A (N/A)20,000 .. 50,0000%00:00 (00:00)
20 Watch This! Sep 23, 2016 $3.99N/A (N/A)200,000 .. 500,0000.8%00:29 (00:19)
21 MDK 2 Sep 17, 2009 $9.99N/A (N/A/83%)20,000 .. 50,0000%00:00 (00:00)
22 Mighty Gunvolt Sep 29, 2015 $4.99N/A (N/A)20,000 .. 50,0000%00:00 (00:00)
23 Dead Horde Jul 27, 2011 $5.99N/A (N/A)50,000 .. 100,0000%00:00 (00:00)
24 Hocus Pocus Jun 1, 1994 $4.99N/A (N/A)0 .. 20,0000.67%00:07 (00:02)
25 Tom Clancy's Rainbow Six Vegas Dec 12, 2006 $9.99N/A (N/A/85%)200,000 .. 500,0000.64%00:16 (00:10)
26 Disney G-Force Jul 21, 2009 $19.99N/A (N/A/61%)0 .. 20,0000%00:00 (00:00)
27 Alpha Prime Nov 7, 2007 $4.99N/A (N/A/59%)200,000 .. 500,0000%00:00 (00:00)
28 El Matador Sep 25, 2006 $3.99N/A (N/A/54%)20,000 .. 50,0000%00:00 (00:00)
29 Zombeer Jan 30, 2015 $4.99N/A (N/A/32%)0 .. 20,0000%00:00 (00:00)
30 Dragon's Lair Jun 19, 1983 $9.99N/A (N/A)20,000 .. 50,0000%00:00 (00:00)
31 Deep Black: Reloaded Apr 18, 2012 $29.99N/A (N/A/39%)0 .. 20,0000%00:00 (00:00)
32 Mind OVR Matter May 22, 2017 $4.99N/A (N/A)0 .. 20,0000%00:00 (00:00)
33 NyxQuest: Kindred Spirits Sep 27, 2010 $2.99N/A (N/A)20,000 .. 50,0000%00:00 (00:00)
34 Emmerholt: Prologue Feb 14, 2017 FreeN/A (N/A)0 .. 20,0000%00:00 (00:00)
35 Zombie Shooter May 27, 2009 $4.99N/A (N/A)100,000 .. 200,0000.34%00:39 (00:13)
36 Grey Cubes May 15, 2015 N/AN/A (N/A)20,000 .. 50,0001.05%00:04 (00:01)
37 Bionic Commando Jul 28, 2009 $9.99N/A (N/A/69%)200,000 .. 500,0000%00:00 (00:00)
38 Raptor: Call of The Shadows - 2015 Edition Apr 1, 1994 $4.99N/A (N/A)20,000 .. 50,0000%00:00 (00:00)
39 TimeShift Jul 23, 2009 $19.99N/A (N/A/71%)100,000 .. 200,0000.51%00:33 (00:11)
40 Manhunter Jan 29, 2013 $4.99N/A (N/A)100,000 .. 200,0000.35%00:07 (00:02)
41 Ubersoldier II Jul 22, 2008 $0.99N/A (N/A/62%)100,000 .. 200,0000%00:00 (00:00)
42 Disney Epic Mickey 2: The Power of Two Oct 6, 2014 $19.99N/A (N/A)20,000 .. 50,0002.7%00:02 (00:00)
43 Inversion Jul 26, 2012 $9.99N/A (N/A)20,000 .. 50,0000%00:00 (00:00)
44 Deus Ex: Breach Jan 24, 2017 FreeN/A (N/A)50,000 .. 100,0000%00:00 (00:00)
45 Warp Mar 21, 2012 $9.99N/A (N/A)20,000 .. 50,0000%00:00 (00:00)
46 Vertigo Dec 22, 2016 $14.99N/A (N/A)0 .. 20,0000%00:00 (00:00)
47 Painkiller: Resurrection Oct 27, 2009 $9.99N/A (N/A/38%)100,000 .. 200,0000.72%01:53 (01:03)
48 Square Brawl Oct 22, 2015 $4.99N/A (N/A)0 .. 20,0000%00:00 (00:00)
49 Sam & Max 301: The Penal Zone N/AN/A (N/A)0 .. 20,0000%00:00 (00:00)
50 Stargunner Nov 19, 1996 FreeN/A (N/A)0 .. 20,0000%00:00 (00:00)
51 Tom Clancy's Ghost Recon Desert Siege Mar 26, 2002 $4.99N/A (N/A/82%)50,000 .. 100,0000.94%00:09 (00:03)
52 Raiden IV: OverKill Sep 3, 2015 $14.99N/A (N/A)50,000 .. 100,0002.6%00:17 (00:11)
53 Painkiller Overdose Oct 30, 2007 $4.99N/A (N/A/65%)200,000 .. 500,0000.74%00:59 (00:29)
54 Elliot Quest Nov 10, 2014 $9.99N/A (N/A)20,000 .. 50,0000%00:00 (00:00)
55 BlackSoul: Extended Edition Feb 26, 2014 $6.99N/A (N/A)20,000 .. 50,0000%00:00 (00:00)
56 Thunder Wolves May 15, 2013 $9.99N/A (N/A/69%)100,000 .. 200,0000%00:00 (00:00)
57 Foreign Legion: Multi Massacre Jul 9, 2012 $6.99N/A (N/A)50,000 .. 100,0000%00:00 (00:00)
58 Deformers Apr 20, 2017 N/AN/A (N/A)0 .. 20,0000%00:00 (00:00)
59 The First Templar - Steam Special Edition May 12, 2011 $1.99N/A (N/A/57%)100,000 .. 200,0000.39%01:55 (00:38)
60 A Legend of Luca Apr 5, 2016 $19.99N/A (N/A)0 .. 20,0000%00:00 (00:00)
61 Zombie Shooter 2 Nov 18, 2009 $9.99N/A (N/A)100,000 .. 200,0000%00:00 (00:00)
62 Kung Fury: Street Rage May 28, 2015 $2.99N/A (N/A)100,000 .. 200,0002.22%01:32 (01:32)
63 Bionic Commando: Rearmed Jul 28, 2009 $9.99N/A (N/A/86%)200,000 .. 500,0000.48%00:05 (00:04)
64 TEMBO THE BADASS ELEPHANT Jul 21, 2015 $14.99N/A (N/A)20,000 .. 50,0000%00:00 (00:00)
65 The Club Feb 20, 2008 $14.99N/A (N/A/67%)20,000 .. 50,0000%00:00 (00:00)
66 The Way May 20, 2016 $14.99N/A (N/A/67%)100,000 .. 200,0000%00:00 (00:00)
67 Explodemon Nov 3, 2011 $8.99N/A (N/A)20,000 .. 50,0000%00:00 (00:00)
68 Strike Vector Jan 28, 2014 $11.99N/A (N/A/73%)100,000 .. 200,0000%00:00 (00:00)
69 MDK2 HD Jul 30, 2012 $14.99N/A (N/A/73%)0 .. 20,0000%00:00 (00:00)
70 Xmas Shooting - Scramble!! Dec 16, 2016 $4.99N/A (N/A)0 .. 20,0000%00:00 (00:00)
71 Alien Zombie Megadeath Oct 18, 2011 $4.99N/A (N/A)20,000 .. 50,0000%00:00 (00:00)
72 Fossil Echo Jul 8, 2016 $9.99N/A (N/A/61%)0 .. 20,0000%00:00 (00:00)
73 AquaNox Apr 20, 2010 $1.24N/A (N/A/67%)100,000 .. 200,0000%00:00 (00:00)
74 Rot Gut Jul 12, 2016 $1.99N/A (N/A)0 .. 20,0000%00:00 (00:00)
75 Iron Grip: Warlord Dec 5, 2008 N/AN/A (N/A/59%)100,000 .. 200,0000%00:00 (00:00)
76 Rise of the Triad: Dark War Dec 21, 1994 $6.99N/A (N/A)50,000 .. 100,0000.65%00:12 (00:04)
77 Tom Clancy's Rainbow Six Lockdown Feb 14, 2006 $9.99N/A (N/A/59%)50,000 .. 100,0001.74%00:08 (00:05)
78 Cinemaware Anthology: 1986-1991 Nov 14, 2014 $9.99N/A (N/A)20,000 .. 50,0000%00:00 (00:00)
79 Judge Dredd: Dredd vs. Death Mar 26, 2009 $7.99N/A (N/A/55%)50,000 .. 100,0000%00:00 (00:00)
80 Dark Raid Jun 3, 2014 $3.99N/A (N/A)0 .. 20,0000%00:00 (00:00)
81 Aces Wild: Manic Brawling Action! Aug 8, 2013 $9.99N/A (N/A)50,000 .. 100,0000%00:00 (00:00)
82 Strike Suit Infinity Apr 30, 2013 $6.99N/A (N/A/66%)100,000 .. 200,0000.36%00:01 (00:00)
83 Painkiller: Recurring Evil Feb 29, 2012 $9.99N/A (N/A/38%)100,000 .. 200,0000%00:00 (00:00)
84 Ballistic Tanks Sep 20, 2016 $4.99N/A (N/A)0 .. 20,0000%00:00 (00:00)
85 Who's That Flying?! Jan 31, 2011 $5.99N/A (N/A/76%)20,000 .. 50,0000%00:00 (00:00)
86 LASTFIGHT May 19, 2016 $14.99N/A (N/A)0 .. 20,0000%00:00 (00:00)
87 SEGA Mega Drive and Genesis Classics Jun 1, 2010 N/AN/A (N/A)200,000 .. 500,0000.53%01:16 (01:10)
88 ESCHATOS Sep 18, 2015 $14.99N/A (N/A)0 .. 20,0000%00:00 (00:00)
89 Alien Breed: Impact Jun 3, 2010 $9.99N/A (N/A/64%)200,000 .. 500,0000%00:00 (00:00)
90 ABRACA - Imagic Games Mar 31, 2016 $14.99N/A (N/A)0 .. 20,0000%00:00 (00:00)
91 Larva Mortus Mar 19, 2009 $4.99N/A (N/A/64%)100,000 .. 200,0000.27%00:21 (00:07)
92 The Stalin Subway: Red Veil Oct 5, 2006 $2.99N/A (N/A)50,000 .. 100,0000%00:00 (00:00)
93 Stick 'Em Up 2: Paper Adventures Jul 27, 2015 $2.99N/A (N/A)20,000 .. 50,0000%00:00 (00:00)
94 Shadow Man Oct 18, 2013 $4.99N/A (N/A)50,000 .. 100,0000%00:00 (00:00)
95 Intrusion 2 Sep 11, 2012 $9.99N/A (N/A/80%)200,000 .. 500,0000.18%00:01 (00:00)
96 STAR WARS SHADOWS OF THE EMPIRE Sep 17, 1997 $5.99N/A (N/A)50,000 .. 100,0000%00:00 (00:00)
97 Bunch of Heroes Sep 21, 2011 $4.99N/A (N/A)100,000 .. 200,0000%00:00 (00:00)
98 Zenodyne R May 29, 2016 $9.99N/A (N/A)20,000 .. 50,0000%00:00 (00:00)
99 AquaNox 2: Revelation Apr 20, 2010 $1.24N/A (N/A/59%)100,000 .. 200,0000%00:00 (00:00)
100 Little Big Adventure - Enhanced Edition Oct 14, 1994 $5.99N/A (N/A)0 .. 20,0000%00:00 (00:00)
101 Delta Force Xtreme 2 Jun 18, 2009 $19.99N/A (N/A)0 .. 20,0000%00:00 (00:00)
102 Star Trek : 25th Anniversary May 7, 2015 $9.99N/A (N/A)0 .. 20,0000%00:00 (00:00)
103 Rayman Raving Rabbids Jun 13, 2008 $9.99N/A (N/A/58%)20,000 .. 50,0000%00:00 (00:00)
104 Hail to the King: Deathbat Oct 30, 2014 $5.99N/A (N/A)0 .. 20,0000%00:00 (00:00)
105 Armed and Dangerous Jul 8, 2009 $5.99N/A (N/A/78%)20,000 .. 50,0000%00:00 (00:00)
106 Putt-Putt Saves The Zoo Dec 31, 1995 $6.99N/A (N/A)20,000 .. 50,0000%00:00 (00:00)
107 Descent: FreeSpace – The Great War May 7, 2014 $9.99N/A (N/A)20,000 .. 50,0000%00:00 (00:00)
108 The Apogee Throwback Pack Jul 1, 2013 $9.99N/A (N/A)100,000 .. 200,0000%00:00 (00:00)
109 Noitu Love 2: Devolution Apr 23, 2012 $4.99N/A (N/A/80%)50,000 .. 100,0000%00:00 (00:00)
110 Scrap Garden - The Day Before Oct 7, 2016 FreeN/A (N/A)100,000 .. 200,0000%00:00 (00:00)
111 Painkiller Redemption Feb 25, 2011 $4.99N/A (N/A/43%)200,000 .. 500,0000.58%00:06 (00:03)
112 Skautfold: Shrouded in Sanity May 27, 2016 $4.99N/A (N/A)20,000 .. 50,0000%00:00 (00:00)
113 Project Freedom Oct 14, 2009 $2.99N/A (N/A)20,000 .. 50,0000%00:00 (00:00)
114 Cruel Arena Aug 18, 2015 $0.99N/A (N/A)200,000 .. 500,0000%00:00 (00:00)
115 Alien Breed 2: Assault Sep 22, 2010 $9.99N/A (N/A/63%)200,000 .. 500,0000%00:00 (00:00)
116 Supercharged Robot VULKAISER Jun 4, 2015 $4.99N/A (N/A)20,000 .. 50,0000%00:00 (00:00)
117 Exodus from the Earth Oct 24, 2008 $14.99N/A (N/A)0 .. 20,0000%00:00 (00:00)
118 OCEAN CITY RACING: Redux Aug 27, 2016 $2.99N/A (N/A)50,000 .. 100,0000%00:00 (00:00)
119 House of the Dying Sun Nov 1, 2016 $19.99N/A (N/A/76%)50,000 .. 100,0000%00:00 (00:00)
120 YAIBA: NINJA GAIDEN Z Mar 21, 2014 $29.99N/A (N/A/49%)20,000 .. 50,0000%00:00 (00:00)
121 Karateka Dec 3, 2012 $3.99N/A (N/A/48%)20,000 .. 50,0000%00:00 (00:00)
122 Dinosis Survival Jul 7, 2017 $4.99N/A (N/A)0 .. 20,0000%00:00 (00:00)
123 Serious Sam Double D XXL Aug 30, 2011 $9.99N/A (N/A)500,000 .. 1,000,0000.13%01:19 (00:26)
124 Versus: Battle of the Gladiator Aug 26, 2016 N/AN/A (N/A)50,000 .. 100,0000%00:00 (00:00)
125 Chaser Jul 16, 2010 $4.99N/A (N/A/66%)50,000 .. 100,0001.2%01:30 (01:00)
126 Age of Barbarian Extended Cut May 20, 2016 $12.99N/A (N/A)0 .. 20,0000%00:00 (00:00)
127 Delta Force Land Warrior Jun 18, 2009 $9.99N/A (N/A/74%)20,000 .. 50,0000%00:00 (00:00)
128 Mega Man Legacy Collection / ロックマン クラシックス コレクション Aug 24, 2015 $14.99N/A (N/A/85%)100,000 .. 200,0001.69%01:25 (03:45)
129 Legendary Dec 1, 2008 $1.99N/A (N/A/50%)200,000 .. 500,0000.21%01:10 (00:23)
130 Redline Jan 1, 1999 $6.99N/A (N/A)20,000 .. 50,0000%00:00 (00:00)
131 Project: Snowblind Mar 29, 2007 $0.89N/A (N/A/76%)50,000 .. 100,0000%00:00 (00:00)
132 Kraven Manor Sep 26, 2014 $5.99N/A (N/A/58%)100,000 .. 200,0000.19%00:06 (00:02)
133 Alone in the Dark: Illumination Jun 11, 2015 $19.99N/A (N/A)0 .. 20,0000%00:00 (00:00)
134 Rain Blood Chronicles: Mirage Nov 11, 2013 $4.99N/A (N/A/68%)0 .. 20,0000%00:00 (00:00)
135 Sacred Citadel Apr 16, 2013 $9.99N/A (N/A/61%)500,000 .. 1,000,0000.12%00:20 (00:06)
136 THOTH Oct 7, 2016 $4.99N/A (N/A)50,000 .. 100,0000.81%00:34 (00:22)
137 Xotic Sep 16, 2011 $9.99N/A (N/A/67%)50,000 .. 100,0000%00:00 (00:00)
138 WOLFLAME Apr 21, 2016 $5.99N/A (N/A)0 .. 20,0000%00:00 (00:00)
139 Big Brain Wolf Nov 5, 2009 $4.99N/A (N/A)20,000 .. 50,0000%00:00 (00:00)
140 Glass Wing Jun 24, 2015 FreeN/A (N/A)50,000 .. 100,0000%00:00 (00:00)
141 Drug Wars Mar 17, 2009 $4.99N/A (N/A/35%)0 .. 20,0000%00:00 (00:00)
142 On My Own Feb 26, 2016 $4.99N/A (N/A)0 .. 20,0000%00:00 (00:00)
143 Damnation May 22, 2009 $9.99N/A (N/A/41%)50,000 .. 100,0000%00:00 (00:00)
144 Vertical Drop Heroes HD Jul 25, 2014 $6.99N/A (N/A/70%)200,000 .. 500,0000.19%00:06 (00:02)
145 Majestic Nights Oct 30, 2014 $4.99N/A (N/A/32%)20,000 .. 50,0000%00:00 (00:00)
146 Tiny Barbarian DX Dec 3, 2013 $29.99N/A (N/A)20,000 .. 50,0000%00:00 (00:00)
147 iBomber Attack Nov 1, 2012 $5.99N/A (N/A)50,000 .. 100,0000%00:00 (00:00)
148 PLANETS OF WAR Jun 30, 2017 $0.99N/A (N/A)20,000 .. 50,0000%00:00 (00:00)
149 Global Ops: Commando Libya Oct 26, 2011 $4.99N/A (N/A/37%)50,000 .. 100,0000%00:00 (00:00)
150 Phantaruk Aug 16, 2016 $4.99N/A (N/A/53%)20,000 .. 50,0000%00:00 (00:00)
151 Coniclysm Mar 26, 2010 $4.99N/A (N/A)0 .. 20,0000%00:00 (00:00)
152 Black & White Bushido Oct 2, 2015 $12.99N/A (N/A)0 .. 20,0000%00:00 (00:00)
153 Delta Force: Black Hawk Down Jun 18, 2009 $14.99N/A (N/A/77%)20,000 .. 50,0000%00:00 (00:00)
154 Below Kryll Sep 7, 2015 $4.99N/A (N/A)0 .. 20,0000%00:00 (00:00)
155 Rocket Knight May 11, 2010 $14.99N/A (N/A/63%)0 .. 20,0000%00:00 (00:00)
156 Deer Hunt Legends Jan 7, 2013 $4.99N/A (N/A)0 .. 20,0000.93%00:03 (00:01)
157 Conflict: Denied Ops Feb 8, 2008 $0.89N/A (N/A/58%)50,000 .. 100,0000%00:00 (00:00)
158 Beyond Space Remastered Edition Jun 16, 2014 $4.99N/A (N/A)20,000 .. 50,0000%00:00 (00:00)
159 Tango Fiesta Sep 24, 2015 $9.99N/A (N/A)20,000 .. 50,0000%00:00 (00:00)
160 Guncraft Aug 9, 2013 $14.99N/A (N/A/73%)100,000 .. 200,0000%00:00 (00:00)
161 Blades of Time Apr 20, 2012 $9.99N/A (N/A/63%)200,000 .. 500,0000%00:00 (00:00)
162 Unbox: Newbie's Adventure Sep 5, 2016 $19.99N/A (N/A/68%)50,000 .. 100,0000.47%03:34 (01:11)
163 Shadow Harvest: Phantom Ops Apr 5, 2011 $9.99N/A (N/A/34%)20,000 .. 50,0000%00:00 (00:00)
164 Skylar & Plux: Adventure On Clover Island May 19, 2017 $14.99N/A (N/A)20,000 .. 50,0005.88%01:11 (00:23)
165 Foreign Legion: Buckets of Blood Aug 4, 2009 $4.99N/A (N/A)50,000 .. 100,0000%00:00 (00:00)
166 Zanzarah: The Hidden Portal Aug 20, 2015 $7.99N/A (N/A)100,000 .. 200,0000%00:00 (00:00)
167 Blacklight: Tango Down Jul 14, 2010 $0.99N/A (N/A/65%)50,000 .. 100,0000%00:00 (00:00)
168 Rad Rodgers: World One Dec 1, 2016 $19.99N/A (N/A/72%)0 .. 20,0000%00:00 (00:00)
169 Unreal 2: The Awakening Mar 17, 2008 $14.99N/A (N/A/75%)200,000 .. 500,0000.43%00:17 (00:11)
170 Bird Assassin Feb 8, 2011 $1.99N/A (N/A)100,000 .. 200,0000%00:00 (00:00)
171 Project Root May 1, 2014 $9.99N/A (N/A)20,000 .. 50,0000%00:00 (00:00)
172 Hot Tin Roof: The Cat That Wore A Fedora Feb 20, 2015 $14.99N/A (N/A/66%)100,000 .. 200,0000.83%02:59 (01:59)
173 NiGHTS Into Dreams Dec 17, 2012 $7.99N/A (N/A)200,000 .. 500,0000.22%00:14 (00:04)
174 Choplifter HD Jan 11, 2012 N/AN/A (N/A/65%)50,000 .. 100,0000%00:00 (00:00)
175 Yomawari: Night Alone / 夜廻 Oct 25, 2016 $19.99N/A (N/A)50,000 .. 100,0000.6%00:02 (00:00)
176 DogFighter Jun 14, 2010 $2.99N/A (N/A)200,000 .. 500,0000%00:00 (00:00)
177 Code of Princess Apr 14, 2016 $14.99N/A (N/A/53%)0 .. 20,0000%00:00 (00:00)
178 Comanche 4 Jun 18, 2009 $9.99N/A (N/A/74%)20,000 .. 50,0000%00:00 (00:00)
179 METAL SLUG 2 Apr 14, 2016 $6.99N/A (N/A)50,000 .. 100,0001.01%00:01 (00:00)
180 Prince of Persia Dec 10, 2008 $9.99N/A (N/A/82%)200,000 .. 500,0000.68%00:18 (00:12)
181 Down To One Jan 7, 2016 $0.99N/A (N/A)100,000 .. 200,0000%00:00 (00:00)
182 QUAKE Mission Pack 1: Scourge of Armagon Aug 3, 2007 $2.99N/A (N/A)200,000 .. 500,0000%00:00 (00:00)
183 Super Rad Raygun Nov 15, 2016 $4.99N/A (N/A/64%)0 .. 20,0000%00:00 (00:00)
184 Spider: Rite of the Shrouded Moon Aug 6, 2015 $9.99N/A (N/A)20,000 .. 50,0000%00:00 (00:00)
185 Kill to Collect Apr 6, 2016 $3.99N/A (N/A/57%)0 .. 20,0000%00:00 (00:00)
186 Cannon Fodder 3 Aug 6, 2012 $14.99N/A (N/A/49%)20,000 .. 50,0000%00:00 (00:00)
187 Overkill VR: Action Shooter FPS Nov 16, 2016 $19.99N/A (N/A)0 .. 20,0000%00:00 (00:00)
188 Capsized Apr 29, 2011 $9.99N/A (N/A/80%)200,000 .. 500,0000%00:00 (00:00)
189 Demon's Crystals Apr 21, 2016 $4.99N/A (N/A)0 .. 20,0000%00:00 (00:00)
190 Kingpin — Life of Crime Aug 19, 2009 $9.99N/A (N/A)20,000 .. 50,0000%00:00 (00:00)
191 Umihara Kawase Shun: Steam Edition Nov 24, 2015 $11.99N/A (N/A)0 .. 20,0004.55%00:01 (00:00)
192 Twin Sector Sep 16, 2009 $4.99N/A (N/A)50,000 .. 100,0000%00:00 (00:00)
193 Blood Alloy: Reborn Mar 2, 2016 $12.99N/A (N/A/48%)0 .. 20,0000%00:00 (00:00)
194 Prince of Persia: Warrior Within Nov 21, 2008 $9.99N/A (N/A/83%)200,000 .. 500,0000%00:00 (00:00)
195 Obludia Jul 18, 2014 $4.99N/A (N/A)20,000 .. 50,0000%00:00 (00:00)
196 Q*bert: Rebooted Jul 1, 2014 N/AN/A (N/A)0 .. 20,0000%00:00 (00:00)
197 Alone in the Dark Nov 18, 2008 $9.99N/A (N/A/55%)20,000 .. 50,0000%00:00 (00:00)
198 Miner Wars 2081 Nov 28, 2012 $9.99N/A (N/A/52%)50,000 .. 100,0000%00:00 (00:00)
199 Scary Girl Apr 9, 2012 $0.97N/A (N/A)0 .. 20,0000%00:00 (00:00)
200 V ARRR Jun 10, 2016 $9.99N/A (N/A)0 .. 20,0000%00:00 (00:00)
201 Wasteland Angel Sep 1, 2011 $9.99N/A (N/A)100,000 .. 200,0000.37%03:44 (01:14)
202 Men of Valor Nov 29, 2004 $9.99N/A (N/A/71%)20,000 .. 50,0000%00:00 (00:00)
203 Alien Shooter May 27, 2009 $4.99N/A (N/A)200,000 .. 500,0001.84%02:07 (03:08)
204 SHOCK TROOPERS May 18, 2016 $7.99N/A (N/A)20,000 .. 50,0000%00:00 (00:00)
205 Watchmen: The End is Nigh Mar 4, 2009 $4.99N/A (N/A/61%)20,000 .. 50,0000%00:00 (00:00)
206 Insanity's Blade Dec 5, 2014 $5.99N/A (N/A)20,000 .. 50,0000%00:00 (00:00)
207 Frontlines: Fuel of War Feb 29, 2008 $19.99N/A (N/A/73%)200,000 .. 500,0000.32%00:01 (00:00)
208 Blood II: The Chosen + Expansion Oct 31, 1998 $4.99N/A (N/A/72%)20,000 .. 50,0000%00:00 (00:00)
209 GIGANTIC ARMY Mar 6, 2014 $5.99N/A (N/A)50,000 .. 100,0000%00:00 (00:00)
210 The Chaos Engine Aug 29, 2013 $9.99N/A (N/A/40%)50,000 .. 100,0000.48%00:01 (00:00)
211 Primal Fears Jan 8, 2013 $9.99N/A (N/A)50,000 .. 100,0000%00:00 (00:00)
212 TITAN SLAYER Apr 27, 2017 $12.99N/A (N/A)0 .. 20,0000%00:00 (00:00)
213 Garshasp: The Monster Slayer May 9, 2011 $4.99N/A (N/A/49%)50,000 .. 100,0000%00:00 (00:00)
214 Spell Fighter VR Mar 1, 2016 FreeN/A (N/A)100,000 .. 200,0000%00:00 (00:00)
215 MDK Sep 17, 2009 $9.99N/A (N/A)20,000 .. 50,0000%00:00 (00:00)
216 Call of Tomsk-7 Aug 10, 2015 $0.99N/A (N/A)20,000 .. 50,0000%00:00 (00:00)
217 Booster Trooper Apr 23, 2010 $1.99N/A (N/A)20,000 .. 50,0000%00:00 (00:00)
218 Cobalt Feb 2, 2016 $14.99N/A (N/A/69%)20,000 .. 50,0000%00:00 (00:00)
219 Prince of Persia: The Two Thrones Nov 21, 2008 $9.99N/A (N/A/85%)200,000 .. 500,0000.85%00:21 (00:13)
220 Disney Alice in Wonderland Mar 2, 2010 $19.99N/A (N/A/63%)0 .. 20,0000%00:00 (00:00)

Tags over time:

Access restricted.

This feature is only available to users with special access rights. Sorry.

If you want to proceed, you need to register or log in first and then back Steam Spy on Patreon. Look for Indie or Pro pledge.

Don't forget to use the same email as on Steam Spy!

Owners of this game also own:

Access restricted.

This feature is only available to users with special access rights. Sorry.

If you want to proceed, you need to register or log in first and then back Steam Spy on Patreon. Look for Indie or Pro pledge.

Don't forget to use the same email as on Steam Spy!

Playtime distribution:

Access restricted.

This feature is only available to users with special access rights. Sorry.

If you want to proceed, you need to register or log in first and then back Steam Spy on Patreon. Look for Indie or Pro pledge.

Don't forget to use the same email as on Steam Spy!

Playtime (2 weeks):

Access restricted.

This feature is only available to users with special access rights. Sorry.

If you want to proceed, you need to register or log in first and then back Steam Spy on Patreon. Look for Indie or Pro pledge.

Don't forget to use the same email as on Steam Spy!

User reviews:

Login required.

Please register or log in to see this information.